Главная страница
METAR-TAF:

METAR-TAF

Аэропорты :

Сулеймания, Ирак

широта: 35-33-39N, долгота: 45-18-52E, высота над уровнем моря: 760 м

Текущие метеонаблюдения

Эта сводка был подготовлена 13 минут назад, в 08:00 UTC
Ветер 25 Узел от северо-восточный с порывами до 35 Узел
Температура 31°C
Влажность 15%
Давление 1014 hPa
Видимость 10 км и более
Нет облачности ниже 1500 м, и нет кучево-дождевой облачности

METAR: ORSU 070800Z 04025G35KT CAVOK 31/01 Q1014

Время: 11:13 (08:13 UTC)

Прогноз

Эта сводка был подготовлена 3 часа и 13 минут назад, в 05:00 UTC
Прогноз действительный с 07-го 06 UTC до 08-го 06 UTC
Ветер 15 Узел от северо-восточный с порывами до 25 Узел
Видимость 10 км и более
Нет облачности ниже 1500 м, и нет кучево-дождевой облачности
изменения
С 07-го 12 UTC до 07-го 14 UTC
Ветер 12 Узел от северо-восточный
временами
С 07-го 16 UTC до 07-го 20 UTC
Ветер 7 Узел от северно-северо-западный

TAF: ORSU 070500Z 0706/0806 04015G25KT CAVOK BECMG 0712/0714 04012KT TEMPO 0716/0720 33007KT

Метеонаблюдения и прогнозы для более 4000 аэропортов (сводки METAR и TAF).

Имеющиеся станции представлены на карте желтыми и красными точками.

Чтобы увидеть название станции, наведите на нее мышь.

Затем щелкните, чтобы увидеть метеонаблюдения и метеопрогнозы.

Управление картой: чтобы увеличить масштаб, щелкните зеленые кнопки с черным крестиком; чтобы уменьшить масштаб, щелкните зеленую кнопку с тире; для просмотра соседних карт щелкайте зеленые стрелки.


METAR-TAF: